Time;durP1;ratioP1;P1;durP2;ratioP2;P2;SDS_P1;SDS_P2;PMS_P1;PMS_P2;Temp;Humidity;BMP_temperature;BMP_pressure;BME280_temperature;BME280_humidity;BME280_pressure;Samples;Min_cycle;Max_cycle;Signal;HPM_P1;HPM_P2
2022/08/04 00:02:49;;;;;;;24.02;15.85;;;;;;;20.56;74.51;95024.13;4991871;28;20205;-77
2022/08/04 00:05:29;;;;;;;15.35;10.75;;;;;;;20.44;75.22;95027.06;4974005;28;20199;-76
2022/08/04 00:07:55;;;;;;;15.50;9.13;;;;;;;20.44;75.10;95028.94;4997279;28;20638;-76
2022/08/04 00:10:21;;;;;;;7.78;5.95;;;;;;;20.39;75.24;95013.72;5009660;28;20201;-76
2022/08/04 00:12:50;;;;;;;8.98;4.93;;;;;;;20.42;75.25;95021.19;4976395;28;20212;-76
2022/08/04 00:15:16;;;;;;;5.07;3.72;;;;;;;20.25;75.91;95020.63;4986904;28;20271;-76
2022/08/04 00:18:07;;;;;;;5.25;4.00;;;;;;;20.10;76.10;95001.91;5007365;28;20203;-76
2022/08/04 00:20:36;;;;;;;7.47;5.00;;;;;;;20.16;76.55;95014.19;5006206;28;20687;-76
2022/08/04 00:23:02;;;;;;;6.13;4.50;;;;;;;20.17;76.01;95008.59;5013208;28;20172;-76
2022/08/04 00:25:28;;;;;;;7.03;4.68;;;;;;;20.25;76.40;95009.91;5013190;28;20168;-76
2022/08/04 00:27:54;;;;;;;5.70;4.30;;;;;;;20.23;76.04;95012.88;5006793;28;20232;-76
2022/08/04 00:30:20;;;;;;;6.15;4.18;;;;;;;20.24;75.77;95009.13;5011356;28;20263;-76
2022/08/04 00:32:46;;;;;;;4.43;4.03;;;;;;;20.24;75.83;95016.34;5000281;28;20284;-76
2022/08/04 00:35:15;;;;;;;4.32;3.92;;;;;;;20.24;75.58;95019.00;4993403;28;20255;-76
2022/08/04 00:37:44;;;;;;;5.97;3.55;;;;;;;20.16;76.03;95019.53;4993448;28;20169;-76
2022/08/04 00:40:22;;;;;;;6.00;4.20;;;;;;;20.09;76.28;95011.78;4999967;28;20194;-76
2022/08/04 00:43:30;;;;;;;7.32;4.63;;;;;;;20.06;76.49;95017.69;5012404;28;20616;-76
2022/08/04 00:46:08;;;;;;;6.40;3.97;;;;;;;20.08;76.49;95020.88;5011774;28;20199;-76
2022/08/04 00:49:00;;;;;;;6.20;4.35;;;;;;;20.12;75.97;95015.81;5012185;28;20689;-76
2022/08/04 00:51:41;;;;;;;8.30;4.18;;;;;;;20.05;75.99;95024.09;5012326;28;20181;-76
2022/08/04 00:54:31;;;;;;;10.52;5.20;;;;;;;20.07;75.96;95027.28;5012673;28;20253;-76
2022/08/04 00:57:26;;;;;;;10.15;4.70;;;;;;;20.04;75.81;95019.00;4992793;28;20181;-74
2022/08/04 01:00:10;;;;;;;15.65;5.75;;;;;;;20.00;76.01;95020.59;5000832;28;20173;-74
2022/08/04 01:03:13;;;;;;;6.13;4.68;;;;;;;19.96;75.88;95013.13;4992784;28;20177;-76
2022/08/04 01:05:56;;;;;;;8.73;4.88;;;;;;;19.92;75.97;95025.41;4993062;28;20576;-76
2022/08/04 01:08:48;;;;;;;8.40;4.93;;;;;;;19.89;75.99;95019.78;4992538;28;20287;-76
2022/08/04 01:11:34;;;;;;;8.05;5.18;;;;;;;19.89;76.05;95028.59;4979994;28;20215;-76
2022/08/04 01:14:23;;;;;;;10.82;4.93;;;;;;;19.90;76.13;95034.72;4994446;28;20209;-76
2022/08/04 01:16:52;;;;;;;7.70;4.65;;;;;;;19.90;76.29;95040.88;5000120;28;20255;-76
2022/08/04 01:19:36;;;;;;;9.75;4.18;;;;;;;19.87;76.26;95036.09;5012245;28;20195;-76
2022/08/04 01:22:07;;;;;;;9.27;4.97;;;;;;;19.89;76.53;95035.81;5003648;28;20168;-76
2022/08/04 01:24:58;;;;;;;7.07;4.35;;;;;;;19.83;76.18;95037.66;5012112;28;20176;-77
2022/08/04 01:27:43;;;;;;;14.27;8.75;;;;;;;19.87;76.52;95046.78;5001722;28;20184;-76
2022/08/04 01:30:09;;;;;;;14.07;8.10;;;;;;;19.83;76.36;95043.00;5011885;28;20448;-76
2022/08/04 01:32:44;;;;;;;23.63;15.68;;;;;;;19.79;76.63;95038.47;5011970;28;20339;-77
2022/08/04 01:35:17;;;;;;;9.68;6.03;;;;;;;19.74;76.95;95031.22;5012279;28;20175;-76
2022/08/04 01:37:57;;;;;;;16.60;9.75;;;;;;;19.74;77.15;95031.22;5011795;28;20183;-77
2022/08/04 01:40:26;;;;;;;9.05;6.28;;;;;;;19.78;76.84;95028.84;5011937;28;20275;-76
2022/08/04 01:42:53;;;;;;;9.57;6.65;;;;;;;19.67;77.10;95011.97;5011933;28;20181;-76
2022/08/04 01:45:18;;;;;;;11.80;6.60;;;;;;;19.69;76.76;95012.53;5011604;28;20287;-76
2022/08/04 01:47:54;;;;;;;10.52;6.30;;;;;;;19.74;76.55;95027.75;5011046;28;20330;-76
2022/08/04 01:50:21;;;;;;;12.32;5.95;;;;;;;19.71;76.93;95025.63;5009935;28;20276;-76
2022/08/04 01:52:47;;;;;;;10.55;5.53;;;;;;;19.71;76.47;95031.78;5010889;28;20200;-76
2022/08/04 01:55:14;;;;;;;17.85;9.52;;;;;;;19.65;76.78;95024.00;4997263;28;20177;-76
2022/08/04 01:57:48;;;;;;;13.18;6.78;;;;;;;19.60;76.92;95030.13;5001201;28;20176;-76
2022/08/04 02:00:17;;;;;;;39.85;23.17;;;;;;;19.55;77.04;95033.56;5011437;28;20192;-77
2022/08/04 02:02:44;;;;;;;16.90;10.32;;;;;;;19.56;77.17;95034.38;5010187;28;20172;-76
2022/08/04 02:05:10;;;;;;;12.70;7.45;;;;;;;19.56;77.01;95032.50;5011181;28;20177;-76
2022/08/04 02:08:03;;;;;;;11.23;7.40;;;;;;;19.56;77.19;95026.38;5010972;28;20339;-76
2022/08/04 02:10:31;;;;;;;12.38;6.55;;;;;;;19.57;76.90;95022.63;5011212;28;20557;-76
2022/08/04 02:12:59;;;;;;;14.18;8.48;;;;;;;19.54;76.96;95013.31;5011031;28;20251;-76
2022/08/04 02:15:37;;;;;;;32.30;18.17;;;;;;;19.52;76.82;95018.09;5011189;28;20244;-76
2022/08/04 02:18:04;;;;;;;20.23;12.95;;;;;;;19.52;76.65;95020.75;4997448;28;20184;-76
2022/08/04 02:20:36;;;;;;;15.35;6.47;;;;;;;19.45;77.19;95020.19;4990778;28;20189;-76
2022/08/04 02:23:08;;;;;;;11.23;5.97;;;;;;;19.42;77.51;95023.38;5010662;28;20184;-76
2022/08/04 02:25:40;;;;;;;10.48;7.70;;;;;;;19.43;77.56;95019.63;4993742;28;20184;-76
2022/08/04 02:28:13;;;;;;;13.95;7.57;;;;;;;19.43;77.30;95026.84;4994352;28;20181;-76
2022/08/04 02:30:49;;;;;;;9.63;6.85;;;;;;;19.33;77.32;95008.09;4991469;28;20189;-76
2022/08/04 02:33:21;;;;;;;7.25;5.68;;;;;;;19.42;77.07;95015.34;4991455;28;20230;-76
2022/08/04 02:35:56;;;;;;;10.75;5.15;;;;;;;19.33;77.03;95002.75;4991082;28;20173;-76
2022/08/04 02:38:46;;;;;;;7.05;5.32;;;;;;;19.39;76.82;95023.06;4991300;28;20645;-76
2022/08/04 02:41:14;;;;;;;17.35;5.43;;;;;;;19.08;77.22;94980.25;4991789;28;20208;-76
2022/08/04 02:43:41;;;;;;;7.30;5.20;;;;;;;19.31;77.16;95021.72;4991445;28;20177;-77
2022/08/04 02:46:09;;;;;;;6.15;5.20;;;;;;;19.25;77.00;95017.41;5005673;28;20234;-77
2022/08/04 02:48:37;;;;;;;14.07;8.18;;;;;;;19.26;76.62;95024.38;5001957;28;20314;-77
2022/08/04 02:51:04;;;;;;;19.20;9.85;;;;;;;19.25;76.48;95033.44;5010534;28;20618;-77
2022/08/04 02:53:32;;;;;;;18.48;9.18;;;;;;;19.16;76.25;95027.78;5010862;28;20203;-77
2022/08/04 02:55:59;;;;;;;16.52;7.72;;;;;;;19.01;75.83;95017.03;5009755;28;20179;-77
2022/08/04 02:58:33;;;;;;;11.05;7.25;;;;;;;18.87;76.83;95026.56;5009267;28;20700;-77
2022/08/04 03:00:58;;;;;;;10.13;5.88;;;;;;;18.68;77.15;95001.38;5010703;28;20180;-77
2022/08/04 03:03:37;;;;;;;8.45;6.28;;;;;;;18.82;77.62;95037.22;5004517;28;20246;-77
2022/08/04 03:06:12;;;;;;;8.50;5.55;;;;;;;18.88;77.22;95040.69;5010100;28;20191;-77
2022/08/04 03:09:16;;;;;;;9.50;6.05;;;;;;;18.85;77.09;95039.38;4997314;28;20223;-77
2022/08/04 03:12:30;;;;;;;10.48;4.88;;;;;;;18.81;77.38;95032.94;4991131;28;20664;-77
2022/08/04 03:15:20;;;;;;;11.00;4.63;;;;;;;18.77;77.87;95032.63;4981127;28;20282;-77
2022/08/04 03:17:48;;;;;;;9.00;5.53;;;;;;;18.77;77.46;95031.81;5014691;28;20307;-77
2022/08/04 03:20:58;;;;;;;8.98;6.00;;;;;;;18.77;77.38;95039.81;5010947;28;20187;-77
2022/08/04 03:23:57;;;;;;;9.73;4.28;;;;;;;18.66;78.06;95036.31;4993856;28;20673;-77
2022/08/04 03:26:54;;;;;;;9.18;4.50;;;;;;;18.70;78.04;95039.25;5012605;28;20186;-76
2022/08/04 03:29:53;;;;;;;6.43;4.28;;;;;;;18.70;78.20;95033.91;5014275;28;20180;-77
2022/08/04 03:32:56;;;;;;;5.20;4.20;;;;;;;18.69;78.50;95029.63;5014216;28;20184;-76
2022/08/04 03:35:51;;;;;;;8.57;3.97;;;;;;;18.67;78.05;95032.59;5003603;28;20227;-77
2022/08/04 03:38:44;;;;;;;6.35;4.22;;;;;;;18.71;78.11;95032.84;5000745;28;20261;-77
2022/08/04 03:41:32;;;;;;;4.80;4.07;;;;;;;18.65;78.26;95028.56;4999818;28;20250;-77
2022/08/04 03:44:16;;;;;;;8.35;4.32;;;;;;;18.62;78.09;95029.06;4973094;28;20872;-77
2022/08/04 03:46:47;;;;;;;5.43;4.18;;;;;;;18.65;78.25;95025.91;4995741;28;20260;-76
2022/08/04 03:49:40;;;;;;;8.75;4.55;;;;;;;18.68;77.80;95036.06;5005013;28;20175;-76
2022/08/04 03:55:34;;;;;;;5.47;4.10;;;;;;;18.78;77.45;95030.78;5006483;28;20688;-76
2022/08/04 03:58:18;;;;;;;7.18;4.25;;;;;;;18.80;77.79;95029.47;5005849;28;20184;-76
2022/08/04 04:00:56;;;;;;;10.05;4.20;;;;;;;18.91;76.98;95032.19;5009538;28;20648;-76
2022/08/04 04:03:48;;;;;;;6.45;3.95;;;;;;;18.97;76.93;95031.97;5006474;28;20173;-77
2022/08/04 04:06:19;;;;;;;10.70;4.55;;;;;;;19.05;77.38;95031.47;5003712;28;20173;-76
2022/08/04 04:09:03;;;;;;;5.35;3.78;;;;;;;19.19;77.50;95035.28;5007956;28;20290;-76
2022/08/04 04:11:47;;;;;;;10.63;4.35;;;;;;;19.36;76.89;95036.97;5010391;28;20176;-76
2022/08/04 04:14:51;;;;;;;12.43;4.68;;;;;;;19.47;75.78;95042.09;5001241;28;20681;-76
2022/08/04 04:17:25;;;;;;;5.28;4.38;;;;;;;19.60;75.29;95048.81;4984350;28;20189;-76
2022/08/04 04:20:09;;;;;;;5.80;4.28;;;;;;;19.68;75.62;95047.50;4993193;28;20176;-76
2022/08/04 04:22:44;;;;;;;5.20;4.18;;;;;;;19.82;74.90;95053.97;5012454;28;20177;-76
2022/08/04 04:25:35;;;;;;;6.97;3.42;;;;;;;19.91;74.19;95047.84;4982848;28;20203;-76
2022/08/04 04:28:01;;;;;;;5.55;4.18;;;;;;;19.92;74.06;95051.31;5010665;28;20187;-76
2022/08/04 04:30:35;;;;;;;8.32;4.00;;;;;;;19.96;74.18;95049.72;5009060;28;20176;-76
2022/08/04 04:33:12;;;;;;;6.72;4.47;;;;;;;19.84;73.65;95039.28;5010604;28;20254;-77
2022/08/04 04:35:48;;;;;;;5.63;4.40;;;;;;;19.96;74.16;95047.88;5009603;28;20169;-76
2022/08/04 04:38:35;;;;;;;15.48;8.65;;;;;;;20.11;73.84;95052.44;5004428;28;20191;-76
2022/08/04 04:41:25;;;;;;;9.52;5.15;;;;;;;20.23;72.65;95060.22;5011542;28;20314;-76
2022/08/04 04:44:24;;;;;;;10.13;6.13;;;;;;;20.34;72.80;95056.47;4993669;28;20188;-76
2022/08/04 04:46:58;;;;;;;11.82;8.10;;;;;;;20.41;72.37;95062.38;4999475;28;20279;-77
2022/08/04 04:49:42;;;;;;;22.52;13.82;;;;;;;20.49;72.16;95063.72;5004793;28;20223;-77
2022/08/04 04:52:16;;;;;;;13.57;8.48;;;;;;;20.60;72.01;95062.63;5010345;28;20255;-76
2022/08/04 04:54:57;;;;;;;12.93;6.30;;;;;;;20.81;71.85;95064.25;5011899;28;20238;-76
2022/08/04 04:57:28;;;;;;;18.25;10.63;;;;;;;21.08;70.75;95063.94;5005988;28;20298;-75
2022/08/04 05:00:04;;;;;;;13.57;9.52;;;;;;;21.31;70.33;95070.59;4992440;28;20181;-76
2022/08/04 05:03:11;;;;;;;47.40;24.90;;;;;;;21.30;69.16;95059.06;4991384;28;20191;-76
2022/08/04 05:05:46;;;;;;;11.50;7.00;;;;;;;21.39;69.07;95062.00;4962545;28;20188;-76
2022/08/04 05:08:20;;;;;;;19.17;11.50;;;;;;;21.58;68.41;95065.69;4991260;28;20226;-76
2022/08/04 05:11:03;;;;;;;15.75;9.45;;;;;;;21.76;67.48;95058.91;5001464;28;20262;-76
2022/08/04 05:13:33;;;;;;;9.05;5.35;;;;;;;22.02;66.46;95063.09;5011028;28;20218;-76
2022/08/04 05:16:05;;;;;;;8.57;4.80;;;;;;;22.22;65.58;95053.31;5011399;28;20208;-76
2022/08/04 05:18:37;;;;;;;10.73;5.85;;;;;;;22.62;64.78;95069.13;5011839;28;20227;-76
2022/08/04 05:21:20;;;;;;;9.85;5.90;;;;;;;23.21;62.91;95079.59;5005694;28;20730;-76
2022/08/04 05:23:53;;;;;;;11.68;6.20;;;;;;;23.69;61.15;95076.97;5011521;28;20200;-76
2022/08/04 05:26:24;;;;;;;6.38;4.82;;;;;;;24.06;60.27;95074.31;5001953;28;20263;-76
2022/08/04 05:28:56;;;;;;;7.70;4.88;;;;;;;24.44;58.83;95082.44;4992439;28;20697;-76
2022/08/04 05:31:31;;;;;;;7.18;5.18;;;;;;;25.05;56.68;95059.94;4992159;28;20219;-76
2022/08/04 05:34:08;;;;;;;6.72;4.85;;;;;;;25.79;54.43;95057.97;5011413;28;20654;-76
2022/08/04 05:36:39;;;;;;;6.68;4.28;;;;;;;26.64;52.72;95082.28;4997248;28;20181;-76
2022/08/04 05:39:09;;;;;;;8.23;5.45;;;;;;;27.13;51.26;95069.78;4992090;28;20180;-76
2022/08/04 05:41:35;;;;;;;7.80;5.22;;;;;;;27.51;49.63;95074.72;4992232;28;21016;-76
2022/08/04 05:44:02;;;;;;;10.02;4.90;;;;;;;27.61;48.76;95074.50;5002707;28;20177;-76
2022/08/04 05:46:29;;;;;;;12.10;8.13;;;;;;;28.21;48.04;95077.38;5001388;28;20887;-76
2022/08/04 05:48:55;;;;;;;6.80;5.68;;;;;;;28.22;46.72;95062.72;5011652;28;20231;-76
2022/08/04 05:51:21;;;;;;;8.48;6.15;;;;;;;27.78;47.64;95069.13;4995146;28;20208;-76
2022/08/04 05:53:48;;;;;;;11.35;5.70;;;;;;;27.28;49.96;95080.19;5007112;28;20669;-76
2022/08/04 05:56:15;;;;;;;18.38;11.52;;;;;;;27.04;50.91;95074.34;4993531;28;20180;-76
2022/08/04 05:58:41;;;;;;;8.38;6.45;;;;;;;26.90;50.51;95076.28;5011060;28;20173;-76
2022/08/04 06:01:10;;;;;;;11.30;5.45;;;;;;;27.14;51.56;95065.97;4999095;28;20188;-76
2022/08/04 06:03:37;;;;;;;11.60;7.03;;;;;;;27.72;49.30;95070.41;4974001;28;20177;-76
2022/08/04 06:06:03;;;;;;;10.23;5.03;;;;;;;28.21;47.96;95084.69;4991415;28;20184;-77
2022/08/04 06:08:30;;;;;;;10.23;6.35;;;;;;;27.90;48.24;95091.00;5006048;28;20231;-77
2022/08/04 06:10:58;;;;;;;28.17;19.58;;;;;;;27.78;49.39;95082.66;5011045;28;20180;-76
2022/08/04 06:13:29;;;;;;;8.88;5.05;;;;;;;27.51;49.35;95090.97;4995633;28;20232;-74
2022/08/04 06:15:57;;;;;;;8.82;6.03;;;;;;;27.15;50.76;95088.41;4991087;28;20169;-74
2022/08/04 06:18:26;;;;;;;9.02;5.32;;;;;;;26.59;51.99;95095.13;5009338;28;20235;-74
2022/08/04 06:20:53;;;;;;;12.20;5.97;;;;;;;26.35;52.81;95086.50;4997282;28;20656;-76
2022/08/04 06:23:22;;;;;;;11.10;6.28;;;;;;;26.23;54.60;95087.00;5008328;28;20566;-76
2022/08/04 06:25:55;;;;;;;12.10;7.80;;;;;;;26.15;54.49;95093.91;5010970;28;20215;-77
2022/08/04 06:28:22;;;;;;;12.20;7.13;;;;;;;25.84;54.04;95090.28;5008299;28;20180;-77
2022/08/04 06:30:49;;;;;;;20.55;11.05;;;;;;;25.60;55.94;95095.06;5017132;28;20177;-76
2022/08/04 06:33:26;;;;;;;8.65;6.72;;;;;;;25.66;57.01;95096.56;5002324;28;20193;-76
2022/08/04 06:35:54;;;;;;;6.80;5.90;;;;;;;25.98;55.44;95090.25;5004889;28;20169;-76
2022/08/04 06:38:24;;;;;;;9.20;6.35;;;;;;;25.93;54.48;95091.16;5015774;28;20172;-77
2022/08/04 06:40:49;;;;;;;8.32;6.22;;;;;;;26.13;55.97;95074.53;4994407;28;20176;-77
2022/08/04 06:43:16;;;;;;;8.40;5.32;;;;;;;26.78;54.53;95084.16;5003071;28;20247;-77
2022/08/04 06:45:42;;;;;;;6.03;5.03;;;;;;;27.15;52.68;95077.59;5006762;28;20267;-77
2022/08/04 06:48:13;;;;;;;14.40;8.15;;;;;;;27.39;51.52;95092.34;5003751;28;20617;-77
2022/08/04 06:50:40;;;;;;;11.23;5.10;;;;;;;27.54;51.64;95093.09;5002547;28;20264;-76
2022/08/04 06:53:06;;;;;;;10.27;6.03;;;;;;;27.48;51.09;95092.41;4990676;28;20197;-76
2022/08/04 06:55:33;;;;;;;7.15;4.93;;;;;;;27.54;51.22;95082.25;5006090;28;20183;-76
2022/08/04 06:58:00;;;;;;;9.38;5.28;;;;;;;27.87;52.19;95083.50;5001193;28;20187;-76
2022/08/04 07:00:27;;;;;;;11.75;4.90;;;;;;;28.18;50.33;95071.81;4990820;28;20181;-77
2022/08/04 07:02:53;;;;;;;7.10;5.75;;;;;;;28.57;50.20;95062.75;4990800;28;20169;-76
2022/08/04 07:05:20;;;;;;;8.65;5.20;;;;;;;28.98;46.90;95073.88;5006778;28;20173;-76
2022/08/04 07:07:46;;;;;;;9.30;5.38;;;;;;;28.96;46.29;95069.94;5010433;28;20220;-74
2022/08/04 07:10:13;;;;;;;8.50;5.68;;;;;;;28.71;46.83;95091.28;5010604;28;20661;-74
2022/08/04 07:12:39;;;;;;;8.05;4.95;;;;;;;28.48;47.82;95070.88;5010548;28;20173;-74
2022/08/04 07:15:06;;;;;;;8.02;5.15;;;;;;;28.71;46.71;95090.50;4992741;28;20197;-74
2022/08/04 07:17:33;;;;;;;9.00;4.68;;;;;;;28.52;48.53;95078.06;5007213;28;20239;-75
2022/08/04 07:20:00;;;;;;;16.42;5.20;;;;;;;28.97;47.72;95090.50;4997745;28;20239;-75
2022/08/04 07:22:26;;;;;;;7.10;4.75;;;;;;;29.10;46.46;95055.06;4990920;28;20256;-75
2022/08/04 07:24:56;;;;;;;7.53;5.45;;;;;;;29.61;46.30;95081.25;4990731;28;20173;-75
2022/08/04 07:27:22;;;;;;;11.93;5.18;;;;;;;29.35;45.75;95083.22;5001875;28;20254;-74
2022/08/04 07:29:48;;;;;;;8.65;5.13;;;;;;;29.17;47.80;95070.81;5009351;28;20728;-76
2022/08/04 07:32:15;;;;;;;8.27;4.32;;;;;;;29.43;46.06;95074.28;5010182;28;20268;-76
2022/08/04 07:34:42;;;;;;;13.85;5.65;;;;;;;29.45;45.38;95066.63;5010297;28;20209;-75
2022/08/04 07:37:08;;;;;;;6.07;4.18;;;;;;;29.62;45.92;95061.13;5005625;28;20169;-76
2022/08/04 07:39:35;;;;;;;8.48;4.88;;;;;;;29.85;44.94;95064.38;5004723;28;20203;-76
2022/08/04 07:42:02;;;;;;;11.50;4.72;;;;;;;29.70;45.13;95066.84;5007114;28;20182;-75
2022/08/04 07:44:32;;;;;;;10.07;5.40;;;;;;;29.25;45.59;95064.59;4999749;28;20169;-74
2022/08/04 07:46:58;;;;;;;9.95;4.60;;;;;;;28.75;47.17;95067.03;4999350;28;20688;-74
2022/08/04 07:49:25;;;;;;;10.88;5.32;;;;;;;28.47;47.57;95059.22;4993606;28;20244;-75
2022/08/04 07:51:52;;;;;;;11.10;5.35;;;;;;;28.32;47.65;95067.84;5008536;28;20176;-74
2022/08/04 07:54:18;;;;;;;8.15;4.82;;;;;;;28.31;48.32;95070.88;4999120;28;20201;-74
2022/08/04 07:56:44;;;;;;;7.93;5.40;;;;;;;27.83;48.47;95047.34;5007084;28;20255;-74
2022/08/04 07:59:10;;;;;;;13.73;5.80;;;;;;;27.70;49.03;95067.19;5010067;28;20168;-76
2022/08/04 08:01:36;;;;;;;8.05;4.88;;;;;;;27.52;49.83;95062.81;5012477;28;20192;-76
2022/08/04 08:04:05;;;;;;;7.10;4.80;;;;;;;27.52;49.99;95051.97;5000728;28;20169;-76
2022/08/04 08:06:31;;;;;;;10.55;6.43;;;;;;;27.38;50.06;95063.72;5002792;28;20184;-76
2022/08/04 08:08:59;;;;;;;8.75;6.25;;;;;;;27.36;50.41;95062.41;5005115;28;20713;-76
2022/08/04 08:11:25;;;;;;;8.15;4.75;;;;;;;27.13;50.74;95047.38;5001055;28;20193;-77
2022/08/04 08:13:51;;;;;;;8.27;5.07;;;;;;;27.20;50.28;95059.31;4999501;28;20188;-77
2022/08/04 08:16:19;;;;;;;11.90;5.63;;;;;;;27.33;49.78;95044.13;5013466;28;20184;-76
2022/08/04 08:18:45;;;;;;;12.15;5.57;;;;;;;27.69;50.45;95062.88;4994295;28;20209;-76
2022/08/04 08:21:11;;;;;;;7.43;5.40;;;;;;;28.07;49.77;95061.25;4994074;28;20217;-76
2022/08/04 08:23:37;;;;;;;11.20;5.50;;;;;;;28.30;48.38;95061.94;4999846;28;20990;-75
2022/08/04 08:26:05;;;;;;;15.40;4.70;;;;;;;28.22;49.11;95061.94;4992008;28;20653;-77
2022/08/04 08:28:31;;;;;;;10.07;5.38;;;;;;;28.15;48.62;95040.72;4998840;28;20207;-78
2022/08/04 08:30:56;;;;;;;10.45;4.72;;;;;;;28.28;49.26;95068.81;5001307;28;20654;-77
2022/08/04 08:33:24;;;;;;;8.95;5.60;;;;;;;28.71;47.86;95071.53;5004625;28;20206;-78
2022/08/04 08:36:00;;;;;;;8.88;5.63;;;;;;;29.14;47.43;95080.44;5013249;28;20187;-78
2022/08/04 08:38:42;;;;;;;6.22;4.07;;;;;;;29.44;45.62;95075.88;5005275;28;20199;-78
2022/08/04 08:41:39;;;;;;;11.90;4.80;;;;;;;29.71;46.08;95063.00;4998468;28;20187;-78
2022/08/04 08:44:26;;;;;;;11.50;6.18;;;;;;;30.01;44.11;95067.38;5001502;28;20264;-78
2022/08/04 08:47:19;;;;;;;10.18;6.05;;;;;;;29.92;44.72;95066.59;4997005;28;20176;-77
2022/08/04 08:50:03;;;;;;;9.40;5.38;;;;;;;29.77;45.50;95067.13;5006305;28;20259;-76
2022/08/04 08:53:06;;;;;;;8.38;5.07;;;;;;;29.70;46.44;95061.41;5004198;28;20558;-76
2022/08/04 08:55:58;;;;;;;7.88;5.05;;;;;;;29.77;44.73;95062.50;4998242;28;20176;-75
2022/08/04 08:58:32;;;;;;;6.53;4.25;;;;;;;29.68;45.90;95064.44;4983543;28;20684;-75
2022/08/04 09:01:34;;;;;;;11.15;3.90;;;;;;;29.69;45.96;95065.25;5011972;28;20186;-74
2022/08/04 09:04:08;;;;;;;6.57;4.22;;;;;;;29.80;46.29;95063.75;5012180;28;20282;-74
2022/08/04 09:07:02;;;;;;;5.45;3.70;;;;;;;30.07;44.62;95054.38;4998333;28;20188;-74
2022/08/04 09:09:38;;;;;;;8.35;4.25;;;;;;;30.34;45.45;95060.13;4993055;28;20177;-74
2022/08/04 09:12:38;;;;;;;7.15;4.13;;;;;;;30.49;43.21;95057.91;4996034;28;20179;-75
2022/08/04 09:15:07;;;;;;;3.88;3.40;;;;;;;30.52;42.08;95058.09;4993798;28;21057;-75
2022/08/04 09:17:41;;;;;;;6.93;3.53;;;;;;;30.46;42.85;95055.84;5010722;28;20241;-74
2022/08/04 09:20:14;;;;;;;5.93;3.80;;;;;;;30.25;42.96;95051.22;5010637;28;20641;-74
2022/08/04 09:22:59;;;;;;;3.70;2.92;;;;;;;30.38;43.88;95047.44;5004342;28;20180;-74
2022/08/04 09:25:33;;;;;;;6.53;3.20;;;;;;;30.64;42.72;95047.25;4994276;28;20236;-75
2022/08/04 09:28:03;;;;;;;51.80;6.25;;;;;;;30.12;40.21;95035.16;4992071;28;20197;-74
2022/08/04 09:30:52;;;;;;;45.67;6.00;;;;;;;29.84;40.59;95035.63;4991966;28;20188;-74
2022/08/04 09:33:22;;;;;;;50.83;5.90;;;;;;;30.18;40.95;95021.09;4992013;28;20240;-74
2022/08/04 09:35:56;;;;;;;43.53;5.47;;;;;;;30.69;41.79;95038.13;4991972;28;20276;-75
2022/08/04 09:38:42;;;;;;;6.53;3.92;;;;;;;31.13;38.70;95042.03;4992084;28;20295;-75
2022/08/04 09:41:19;;;;;;;57.78;7.18;;;;;;;31.31;37.25;95048.09;4991662;28;20200;-74
2022/08/04 09:44:03;;;;;;;77.72;9.68;;;;;;;31.31;38.00;95040.69;4998322;28;20172;-75
2022/08/04 09:46:36;;;;;;;59.03;11.10;;;;;;;31.34;37.38;95047.41;5005072;28;20204;-74
2022/08/04 09:49:03;;;;;;;85.00;11.30;;;;;;;31.43;37.89;95043.44;5011339;28;20892;-74
2022/08/04 09:51:31;;;;;;;79.53;12.23;;;;;;;31.54;38.21;95040.28;4992617;28;20181;-74
2022/08/04 09:54:11;;;;;;;76.55;11.40;;;;;;;31.77;38.67;95041.44;5008202;28;20197;-75
2022/08/04 09:57:26;;;;;;;3.15;2.50;;;;;;;32.00;37.20;95036.34;5011166;28;20623;-74
2022/08/04 10:00:03;;;;;;;7.18;3.42;;;;;;;32.11;35.22;95042.91;4966347;28;20196;-75
2022/08/04 10:02:35;;;;;;;4.80;2.65;;;;;;;32.04;35.38;95032.59;5011285;28;20184;-75
2022/08/04 10:05:10;;;;;;;2.70;1.95;;;;;;;31.89;35.02;95019.66;4978972;28;20181;-75
2022/08/04 10:07:56;;;;;;;2.30;2.10;;;;;;;31.93;34.93;95036.09;5001815;28;20701;-75
2022/08/04 10:10:30;;;;;;;5.80;2.92;;;;;;;31.89;33.18;95032.50;4998908;28;20188;-75
2022/08/04 10:13:18;;;;;;;6.55;2.53;;;;;;;31.81;33.48;95024.09;5011049;28;20253;-74
2022/08/04 10:15:59;;;;;;;2.83;1.90;;;;;;;32.00;34.48;95028.19;5010966;28;20577;-75
2022/08/04 10:18:47;;;;;;;4.25;2.15;;;;;;;32.02;31.80;95017.72;5011030;28;20184;-75
2022/08/04 10:21:44;;;;;;;5.93;2.22;;;;;;;31.77;35.36;95023.19;4993799;28;20200;-75
2022/08/04 10:24:28;;;;;;;8.43;2.30;;;;;;;31.93;34.86;95017.03;5008242;28;20571;-74
2022/08/04 10:27:05;;;;;;;4.38;2.10;;;;;;;32.07;35.28;95004.66;5004275;28;20183;-75
2022/08/04 10:29:40;;;;;;;3.58;2.10;;;;;;;32.34;33.75;95021.44;5010455;28;20180;-74
2022/08/04 10:32:14;;;;;;;5.50;2.30;;;;;;;32.23;31.34;95007.50;5011086;28;20191;-75
2022/08/04 10:34:47;;;;;;;3.97;2.30;;;;;;;32.10;31.54;95009.41;4996251;28;20275;-75
2022/08/04 10:37:27;;;;;;;5.10;2.22;;;;;;;32.06;31.71;95010.44;4997844;28;20180;-75
2022/08/04 10:42:52;;;;;;;3.17;2.30;;;;;;;31.89;30.75;95007.97;5010601;28;20561;-74
2022/08/04 10:45:22;;;;;;;3.65;2.60;;;;;;;31.70;31.85;95003.09;4992819;28;20267;-75
2022/08/04 10:47:58;;;;;;;2.25;2.00;;;;;;;31.68;31.97;94983.59;4991159;28;20229;-75
2022/08/04 10:50:27;;;;;;;7.38;2.45;;;;;;;31.83;32.13;94989.13;4973527;28;20184;-74
2022/08/04 10:53:01;;;;;;;2.17;1.92;;;;;;;31.99;32.80;94996.63;4990580;28;20654;-74
2022/08/04 10:55:34;;;;;;;2.85;2.28;;;;;;;31.77;31.75;94987.78;5001062;28;20262;-75
2022/08/04 10:58:06;;;;;;;2.10;1.90;;;;;;;31.71;32.24;94991.09;5010325;28;20179;-75
2022/08/04 11:00:37;;;;;;;2.42;2.20;;;;;;;31.38;32.04;94975.63;5010048;28;20184;-74
2022/08/04 11:03:04;;;;;;;5.53;2.25;;;;;;;31.60;32.97;94987.19;4991012;28;20259;-75
2022/08/04 11:05:44;;;;;;;3.50;2.00;;;;;;;31.76;33.23;94988.91;4990694;28;20177;-75
2022/08/04 11:08:19;;;;;;;3.67;2.03;;;;;;;32.01;30.41;94989.66;4996558;28;20768;-75
2022/08/04 11:10:58;;;;;;;2.42;1.88;;;;;;;32.13;29.96;94983.41;4990416;28;20177;-75
2022/08/04 11:13:33;;;;;;;3.97;1.83;;;;;;;32.10;28.35;94986.81;4990162;28;20204;-75
2022/08/04 11:16:04;;;;;;;3.83;2.00;;;;;;;32.03;29.76;94983.88;5004373;28;20196;-75
2022/08/04 11:18:57;;;;;;;2.72;1.80;;;;;;;32.12;30.77;94973.66;4992930;28;20205;-75
2022/08/04 11:21:30;;;;;;;3.22;1.90;;;;;;;32.25;31.12;94980.69;5007860;28;20177;-75
2022/08/04 11:24:14;;;;;;;1.83;1.70;;;;;;;32.42;30.11;94976.88;5008662;28;20172;-75
2022/08/04 11:26:50;;;;;;;7.75;1.90;;;;;;;32.49;29.64;94955.28;5008448;28;20744;-75
2022/08/04 11:29:28;;;;;;;2.63;1.60;;;;;;;32.70;29.35;94977.69;4993079;28;20177;-75
2022/08/04 11:31:58;;;;;;;4.68;2.03;;;;;;;32.78;28.15;94968.56;4989670;28;20287;-75
2022/08/04 11:34:25;;;;;;;1.60;1.50;;;;;;;32.76;27.82;94973.59;4990406;28;20719;-75
2022/08/04 11:37:21;;;;;;;1.77;1.67;;;;;;;32.72;29.02;94969.16;5004190;28;20172;-75
2022/08/04 11:40:02;;;;;;;9.98;2.22;;;;;;;32.60;27.79;94972.72;5012920;28;20277;-75
2022/08/04 11:42:42;;;;;;;2.67;1.80;;;;;;;32.45;28.21;94966.06;4995312;28;20177;-75
2022/08/04 11:45:15;;;;;;;3.53;1.67;;;;;;;32.30;28.32;94946.94;5013127;28;20190;-75
2022/08/04 11:47:50;;;;;;;1.80;1.70;;;;;;;32.56;28.59;94969.09;5012986;28;20289;-75
2022/08/04 11:50:21;;;;;;;4.13;2.00;;;;;;;32.71;28.96;94962.13;5012726;28;20176;-75
2022/08/04 11:52:51;;;;;;;1.90;1.80;;;;;;;32.87;27.71;94966.47;5008607;28;20600;-75
2022/08/04 11:55:20;;;;;;;1.77;1.67;;;;;;;32.84;26.43;94969.13;4992949;28;20319;-75
2022/08/04 11:57:46;;;;;;;1.80;1.70;;;;;;;32.41;26.78;94953.50;4993052;28;20559;-75
2022/08/04 12:00:16;;;;;;;2.08;1.70;;;;;;;32.21;28.47;94955.25;4994108;28;20180;-75
2022/08/04 12:03:06;;;;;;;2.05;1.90;;;;;;;32.04;29.50;94950.06;4994808;28;20557;-75
2022/08/04 12:05:42;;;;;;;3.47;1.98;;;;;;;31.97;29.48;94953.38;4994042;28;20173;-74
2022/08/04 12:08:34;;;;;;;2.13;1.83;;;;;;;31.92;29.14;94950.06;4993239;28;20224;-74
2022/08/04 12:11:23;;;;;;;2.65;2.00;;;;;;;31.79;29.18;94958.28;4989874;28;20275;-74
2022/08/04 12:13:54;;;;;;;2.75;1.88;;;;;;;31.61;28.20;94954.19;5012506;28;20227;-74
2022/08/04 12:16:26;;;;;;;2.33;2.08;;;;;;;31.48;29.01;94958.06;5003984;28;20185;-74